Tecumseh — WTW9257 — position and weather

sailwx.info

Track history (hours):
 
Tides and Currents Weather Stations Pressure Air Temp Water Temp Dewpoint Dewpoint Depression Visibility Wind Speed Wind Dir Waves Ship Positions

Tecumseh

Owner: Sause Bros. Inc., COOS BAY, OR. More information available from US FCC via Universal Licensing System and Coast Guard Vessel Documentation Center.

Last reported at 2016-Aug-06 19:21 UTC. Time now 2016-Aug-24 08:28 UTC.
Position N 37°38' W 122°56'.
Warning: this ship's position is 17 days out of date.

Length 90 m; draft 4.8 m.

Type: Towing. MMSI: 367133160.

Date/timePositionNaut miles runAvg speedWind from/ knotsBaromVisibWave heightAir tempDewpointWater temp
2016-Aug-06 19:21N 37°38' W 122°56'7 8.2
2016-Aug-06 18:33N 37°42' W 122°49'8 7.6
2016-Aug-06 17:27N 37°45' W 122°39'7 8.1
2016-Aug-06 16:33N 37°48' W 122°31'7 7.0
2016-Aug-06 15:33N 37°54' W 122°27'8 8.5
2016-Aug-06 14:34N 38°02' W 122°21'6 0.4
2016-Aug-06 00:24N 38°04' W 122°14'0 0.0
2016-Aug-05 19:33N 38°04' W 122°15'3 2.5
2016-Aug-05 18:30N 38°03' W 122°18'5 5.5
2016-Aug-05 17:33N 38°01' W 122°24'5 5.4
2016-Aug-05 16:33N 37°56' W 122°25'1 0.5
2016-Aug-05 15:18N 37°55' W 122°25'0 0.1
2016-Aug-05 14:15N 37°55' W 122°25'0 0.0
2016-Aug-05 13:33N 37°55' W 122°25'0 0.0
2016-Aug-05 12:33N 37°55' W 122°25'0 0.0
2016-Aug-05 11:33N 37°55' W 122°25'0 0.0
2016-Aug-05 10:33N 37°55' W 122°25'0 0.0
2016-Aug-05 09:27N 37°55' W 122°25'0 0.0
2016-Aug-05 08:33N 37°55' W 122°25'0 0.0
2016-Aug-05 07:33N 37°55' W 122°25'0 0.0
2016-Aug-05 06:33N 37°55' W 122°25'2 1.1
2016-Aug-05 04:33N 37°55' W 122°22'0 0.0
2016-Aug-05 03:33N 37°55' W 122°22'0 0.0
2016-Aug-05 02:33N 37°55' W 122°22'0 0.0
2016-Aug-05 01:33N 37°55' W 122°22'0 0.0
2016-Aug-05 00:33N 37°55' W 122°22'2 2.0
2016-Aug-04 23:33N 37°55' W 122°24'1 0.7
2016-Aug-04 22:33N 37°55' W 122°25'1 1.2
2016-Aug-04 21:33N 37°55' W 122°26'0 0.5
2016-Aug-04 20:33N 37°54' W 122°26'6 6.3
2016-Aug-04 19:33N 37°49' W 122°30'1510.1
2016-Aug-04 18:07N 37°47' W 122°48'5 9.9
2016-Aug-04 17:33N 37°50' W 122°54'10 9.5
2016-Aug-04 16:33N 37°54' W 123°05'8 7.9
2016-Aug-04 15:33N 37°59' W 123°13'8 8.5
2016-Aug-04 14:33N 38°05' W 123°20'8 8.3
2016-Aug-04 13:33N 38°10' W 123°28'9 8.5
2016-Aug-04 12:33N 38°14' W 123°38'8 8.2
2016-Aug-04 11:33N 38°19' W 123°46'8 8.2
2016-Aug-04 10:33N 38°26' W 123°53'422 8.8
2016-Aug-02 10:33N 45°26' W 124°34'10 9.7
2016-Aug-02 09:33N 45°36' W 124°33'10 9.8
2016-Aug-02 08:33N 45°46' W 124°31'10 9.7
2016-Aug-02 07:33N 45°55' W 124°29'10 9.6
2016-Aug-02 06:34N 46°04' W 124°22'17 8.7
2016-Aug-02 04:33N 46°15' W 124°04'8 8.2
2016-Aug-02 03:33N 46°11' W 123°53'1110.9
2016-Aug-02 02:33N 46°16' W 123°39'10 9.5
2016-Aug-02 01:33N 46°12' W 123°26'9 8.7
2016-Aug-02 00:33N 46°10' W 123°13'10 9.8
2016-Aug-01 23:33N 46°08' W 122°60'9 8.7
2016-Aug-01 22:33N 46°01' W 122°52'1010.3
2016-Aug-01 21:33N 45°51' W 122°47'1111.1
2016-Aug-01 20:33N 45°40' W 122°46'6 5.7
2016-Aug-01 19:34N 45°35' W 122°45'1 0.7
2016-Aug-01 18:33N 45°34' W 122°44'2 1.6
2016-Aug-01 17:29N 45°33' W 122°42'0 0.0
2016-Aug-01 16:29N 45°33' W 122°42'0 0.0
2016-Aug-01 15:26N 45°33' W 122°42'0 0.0
2016-Aug-01 14:29N 45°33' W 122°42'0 0.0
2016-Aug-01 13:29N 45°33' W 122°42'0 0.0
2016-Aug-01 12:29N 45°33' W 122°42'0 0.0
2016-Aug-01 11:29N 45°33' W 122°42'0 0.0
2016-Aug-01 10:32N 45°33' W 122°42'0 0.0
2016-Aug-01 09:23N 45°33' W 122°42'0 0.0
2016-Aug-01 08:32N 45°33' W 122°42'0 0.0
2016-Aug-01 07:29N 45°33' W 122°42'0 0.0
2016-Aug-01 04:32N 45°33' W 122°42'0 0.0
2016-Aug-01 03:32N 45°33' W 122°42'2 1.7
2016-Aug-01 02:33N 45°34' W 122°44'0 0.4
2016-Aug-01 01:33N 45°34' W 122°44'6 5.8
2016-Aug-01 00:33N 45°40' W 122°46'3 2.6
2016-Jul-31 23:28N 45°43' W 122°46'0 0.1
2016-Jul-31 22:31N 45°43' W 122°46'0 0.0
2016-Jul-31 21:28N 45°43' W 122°46'0 0.0
2016-Jul-31 20:31N 45°43' W 122°46'0 0.0
2016-Jul-31 19:28N 45°43' W 122°46'0 0.0
2016-Jul-31 18:31N 45°43' W 122°46'0 0.0
2016-Jul-31 17:31N 45°43' W 122°46'0 0.0
2016-Jul-31 16:31N 45°43' W 122°46'0 0.0
2016-Jul-31 15:28N 45°43' W 122°46'0 0.0
2016-Jul-31 14:31N 45°43' W 122°46'0 0.0
2016-Jul-31 13:31N 45°43' W 122°46'0 0.0
2016-Jul-31 12:28N 45°43' W 122°46'0 0.0
2016-Jul-31 11:31N 45°43' W 122°46'0 0.0
2016-Jul-31 10:31N 45°43' W 122°46'0 0.0
2016-Jul-31 09:28N 45°43' W 122°46'0 0.0
2016-Jul-31 08:31N 45°43' W 122°46'0 0.0
2016-Jul-31 07:31N 45°43' W 122°46'0 0.0
2016-Jul-31 06:31N 45°43' W 122°46'0 0.0
2016-Jul-31 05:31N 45°43' W 122°46'0 0.0
2016-Jul-31 04:31N 45°43' W 122°46'0 0.0
2016-Jul-31 03:31N 45°43' W 122°46'0 0.0
2016-Jul-31 02:33N 45°43' W 122°46'0 0.0
2016-Jul-31 01:33N 45°43' W 122°46'3 2.5
2016-Jul-31 00:34N 45°46' W 122°46'16 8.2
2016-Jul-30 22:33N 46°01' W 122°52'9 8.6
2016-Jul-30 21:34N 46°08' W 123°00'9 8.5
2016-Jul-30 20:33N 46°11' W 123°12'9 8.6
2016-Jul-30 19:33N 46°10' W 123°24'8 8.0
2016-Jul-30 18:33N 46°16' W 123°31'10 9.9
2016-Jul-30 17:33N 46°13' W 123°45'8 8.0
2016-Jul-30 16:33N 46°12' W 123°56'5 5.3
2016-Jul-30 15:34N 46°15' W 124°02'6 5.7
2016-Jul-30 14:33N 46°13' W 124°10'4 4.1
2016-Jul-30 13:33N 46°10' W 124°14'4 4.2
2016-Jul-30 12:33N 46°07' W 124°18'4 4.3
2016-Jul-30 11:33N 46°04' W 124°22'4 4.2
2016-Jul-30 10:33N 46°01' W 124°26'4 4.5
2016-Jul-30 09:33N 45°58' W 124°31'4 4.4
2016-Jul-30 08:33N 45°55' W 124°35'4 3.9
2016-Jul-30 07:33N 45°52' W 124°39'4 4.3
2016-Jul-30 06:33N 45°49' W 124°44'4 3.9
2016-Jul-30 05:33N 45°45' W 124°45'4 4.2
2016-Jul-30 04:33N 45°41' W 124°45'4 4.3
2016-Jul-30 03:33N 45°36' W 124°45'4 4.3
2016-Jul-30 02:33N 45°32' W 124°44'5 4.2
2016-Jul-30 01:29N 45°28' W 124°44'4 4.2
2016-Jul-30 00:28N 45°23' W 124°44'4 4.1
2016-Jul-29 23:32N 45°19' W 124°44'4 4.2
2016-Jul-29 22:32N 45°15' W 124°45'4 4.3
2016-Jul-29 21:33N 45°11' W 124°44'5 4.4
2016-Jul-29 20:32N 45°07' W 124°44'4 4.5
2016-Jul-29 19:33N 45°02' W 124°44'5 4.5
2016-Jul-29 18:32N 44°58' W 124°43'4 4.4
2016-Jul-29 17:33N 44°53' W 124°43'5 4.6
2016-Jul-29 16:33N 44°49' W 124°43'5 4.6
2016-Jul-29 15:33N 44°44' W 124°43'4 4.4
2016-Jul-29 14:33N 44°40' W 124°43'5 4.5
2016-Jul-29 13:30N 44°35' W 124°43'4 4.6
2016-Jul-29 12:32N 44°31' W 124°43'4 4.6
2016-Jul-29 11:33N 44°26' W 124°43'4 4.4
2016-Jul-29 10:33N 44°22' W 124°43'4 4.3
2016-Jul-29 09:33N 44°17' W 124°43'4 4.4
2016-Jul-29 08:33N 44°13' W 124°43'4 4.0
2016-Jul-29 07:32N 44°09' W 124°43'4 4.0
2016-Jul-29 06:33N 44°05' W 124°43'4 3.8
2016-Jul-29 05:33N 44°01' W 124°43'4 3.9
2016-Jul-29 04:33N 43°57' W 124°43'4 4.1
2016-Jul-29 03:33N 43°53' W 124°45'4 4.2
2016-Jul-29 02:33N 43°49' W 124°46'6 5.8
2016-Jul-29 01:33N 43°44' W 124°49'6 5.7
2016-Jul-29 00:33N 43°38' W 124°51'6 5.5
2016-Jul-28 23:33N 43°33' W 124°53'6 5.6
2016-Jul-28 22:33N 43°28' W 124°55'6 6.0
2016-Jul-28 21:32N 43°22' W 124°57'6 5.9
2016-Jul-28 20:33N 43°16' W 124°60'6 5.7
2016-Jul-28 19:32N 43°11' W 125°02'7 5.5
2016-Jul-28 18:12N 43°03' W 125°05'4 5.1
2016-Jul-28 17:25N 42°60' W 125°06'5 4.9
2016-Jul-28 16:22N 42°55' W 125°08'37 4.5
2016-Jul-28 08:04N 42°18' W 125°02'12 3.6
2016-Jul-28 04:33N 42°05' W 124°59'3 3.4
2016-Jul-28 03:33N 42°02' W 124°58'  
Track history (hours):
 
Tides and Currents Weather Stations Pressure Air Temp Water Temp Dewpoint Dewpoint Depression Visibility Wind Speed Wind Dir Waves Ship Positions

Tecumseh

Owner: Sause Bros. Inc., COOS BAY, OR. More information available from US FCC via Universal Licensing System and Coast Guard Vessel Documentation Center.

Last reported at 2016-Aug-06 19:21 UTC. Time now 2016-Aug-24 08:28 UTC.
Position N 37°38' W 122°56'.
Warning: this ship's position is 17 days out of date.

Length 90 m; draft 4.8 m.

Type: Towing. MMSI: 367133160.

Date/timePositionNaut miles runAvg speedWind from/ knotsBaromVisibWave heightAir tempDewpointWater temp
2016-Aug-06 19:21N 37°38' W 122°56'7 8.2
2016-Aug-06 18:33N 37°42' W 122°49'8 7.6
2016-Aug-06 17:27N 37°45' W 122°39'7 8.1
2016-Aug-06 16:33N 37°48' W 122°31'7 7.0
2016-Aug-06 15:33N 37°54' W 122°27'8 8.5
2016-Aug-06 14:34N 38°02' W 122°21'6 0.4
2016-Aug-06 00:24N 38°04' W 122°14'0 0.0
2016-Aug-05 19:33N 38°04' W 122°15'3 2.5
2016-Aug-05 18:30N 38°03' W 122°18'5 5.5
2016-Aug-05 17:33N 38°01' W 122°24'5 5.4
2016-Aug-05 16:33N 37°56' W 122°25'1 0.5
2016-Aug-05 15:18N 37°55' W 122°25'0 0.1
2016-Aug-05 14:15N 37°55' W 122°25'0 0.0
2016-Aug-05 13:33N 37°55' W 122°25'0 0.0
2016-Aug-05 12:33N 37°55' W 122°25'0 0.0
2016-Aug-05 11:33N 37°55' W 122°25'0 0.0
2016-Aug-05 10:33N 37°55' W 122°25'0 0.0
2016-Aug-05 09:27N 37°55' W 122°25'0 0.0
2016-Aug-05 08:33N 37°55' W 122°25'0 0.0
2016-Aug-05 07:33N 37°55' W 122°25'0 0.0
2016-Aug-05 06:33N 37°55' W 122°25'2 1.1
2016-Aug-05 04:33N 37°55' W 122°22'0 0.0
2016-Aug-05 03:33N 37°55' W 122°22'0 0.0
2016-Aug-05 02:33N 37°55' W 122°22'0 0.0
2016-Aug-05 01:33N 37°55' W 122°22'0 0.0
2016-Aug-05 00:33N 37°55' W 122°22'2 2.0
2016-Aug-04 23:33N 37°55' W 122°24'1 0.7
2016-Aug-04 22:33N 37°55' W 122°25'1 1.2
2016-Aug-04 21:33N 37°55' W 122°26'0 0.5
2016-Aug-04 20:33N 37°54' W 122°26'6 6.3
2016-Aug-04 19:33N 37°49' W 122°30'1510.1
2016-Aug-04 18:07N 37°47' W 122°48'5 9.9
2016-Aug-04 17:33N 37°50' W 122°54'10 9.5
2016-Aug-04 16:33N 37°54' W 123°05'8 7.9
2016-Aug-04 15:33N 37°59' W 123°13'8 8.5
2016-Aug-04 14:33N 38°05' W 123°20'8 8.3
2016-Aug-04 13:33N 38°10' W 123°28'9 8.5
2016-Aug-04 12:33N 38°14' W 123°38'8 8.2
2016-Aug-04 11:33N 38°19' W 123°46'8 8.2
2016-Aug-04 10:33N 38°26' W 123°53'422 8.8
2016-Aug-02 10:33N 45°26' W 124°34'10 9.7
2016-Aug-02 09:33N 45°36' W 124°33'10 9.8
2016-Aug-02 08:33N 45°46' W 124°31'10 9.7
2016-Aug-02 07:33N 45°55' W 124°29'10 9.6
2016-Aug-02 06:34N 46°04' W 124°22'17 8.7
2016-Aug-02 04:33N 46°15' W 124°04'8 8.2
2016-Aug-02 03:33N 46°11' W 123°53'1110.9
2016-Aug-02 02:33N 46°16' W 123°39'10 9.5
2016-Aug-02 01:33N 46°12' W 123°26'9 8.7
2016-Aug-02 00:33N 46°10' W 123°13'10 9.8
2016-Aug-01 23:33N 46°08' W 122°60'9 8.7
2016-Aug-01 22:33N 46°01' W 122°52'1010.3
2016-Aug-01 21:33N 45°51' W 122°47'1111.1
2016-Aug-01 20:33N 45°40' W 122°46'6 5.7
2016-Aug-01 19:34N 45°35' W 122°45'1 0.7
2016-Aug-01 18:33N 45°34' W 122°44'2 1.6
2016-Aug-01 17:29N 45°33' W 122°42'0 0.0
2016-Aug-01 16:29N 45°33' W 122°42'0 0.0
2016-Aug-01 15:26N 45°33' W 122°42'0 0.0
2016-Aug-01 14:29N 45°33' W 122°42'0 0.0
2016-Aug-01 13:29N 45°33' W 122°42'0 0.0
2016-Aug-01 12:29N 45°33' W 122°42'0 0.0
2016-Aug-01 11:29N 45°33' W 122°42'0 0.0
2016-Aug-01 10:32N 45°33' W 122°42'0 0.0
2016-Aug-01 09:23N 45°33' W 122°42'0 0.0
2016-Aug-01 08:32N 45°33' W 122°42'0 0.0
2016-Aug-01 07:29N 45°33' W 122°42'0 0.0
2016-Aug-01 04:32N 45°33' W 122°42'0 0.0
2016-Aug-01 03:32N 45°33' W 122°42'2 1.7
2016-Aug-01 02:33N 45°34' W 122°44'0 0.4
2016-Aug-01 01:33N 45°34' W 122°44'6 5.8
2016-Aug-01 00:33N 45°40' W 122°46'3 2.6
2016-Jul-31 23:28N 45°43' W 122°46'0 0.1
2016-Jul-31 22:31N 45°43' W 122°46'0 0.0
2016-Jul-31 21:28N 45°43' W 122°46'0 0.0
2016-Jul-31 20:31N 45°43' W 122°46'0 0.0
2016-Jul-31 19:28N 45°43' W 122°46'0 0.0
2016-Jul-31 18:31N 45°43' W 122°46'0 0.0
2016-Jul-31 17:31N 45°43' W 122°46'0 0.0
2016-Jul-31 16:31N 45°43' W 122°46'0 0.0
2016-Jul-31 15:28N 45°43' W 122°46'0 0.0
2016-Jul-31 14:31N 45°43' W 122°46'0 0.0
2016-Jul-31 13:31N 45°43' W 122°46'0 0.0
2016-Jul-31 12:28N 45°43' W 122°46'0 0.0
2016-Jul-31 11:31N 45°43' W 122°46'0 0.0
2016-Jul-31 10:31N 45°43' W 122°46'0 0.0
2016-Jul-31 09:28N 45°43' W 122°46'0 0.0
2016-Jul-31 08:31N 45°43' W 122°46'0 0.0
2016-Jul-31 07:31N 45°43' W 122°46'0 0.0
2016-Jul-31 06:31N 45°43' W 122°46'0 0.0
2016-Jul-31 05:31N 45°43' W 122°46'0 0.0
2016-Jul-31 04:31N 45°43' W 122°46'0 0.0
2016-Jul-31 03:31N 45°43' W 122°46'0 0.0
2016-Jul-31 02:33N 45°43' W 122°46'0 0.0
2016-Jul-31 01:33N 45°43' W 122°46'3 2.5
2016-Jul-31 00:34N 45°46' W 122°46'16 8.2
2016-Jul-30 22:33N 46°01' W 122°52'9 8.6
2016-Jul-30 21:34N 46°08' W 123°00'9 8.5
2016-Jul-30 20:33N 46°11' W 123°12'9 8.6
2016-Jul-30 19:33N 46°10' W 123°24'8 8.0
2016-Jul-30 18:33N 46°16' W 123°31'10 9.9
2016-Jul-30 17:33N 46°13' W 123°45'8 8.0
2016-Jul-30 16:33N 46°12' W 123°56'5 5.3
2016-Jul-30 15:34N 46°15' W 124°02'6 5.7
2016-Jul-30 14:33N 46°13' W 124°10'4 4.1
2016-Jul-30 13:33N 46°10' W 124°14'4 4.2
2016-Jul-30 12:33N 46°07' W 124°18'4 4.3
2016-Jul-30 11:33N 46°04' W 124°22'4 4.2
2016-Jul-30 10:33N 46°01' W 124°26'4 4.5
2016-Jul-30 09:33N 45°58' W 124°31'4 4.4
2016-Jul-30 08:33N 45°55' W 124°35'4 3.9
2016-Jul-30 07:33N 45°52' W 124°39'4 4.3
2016-Jul-30 06:33N 45°49' W 124°44'4 3.9
2016-Jul-30 05:33N 45°45' W 124°45'4 4.2
2016-Jul-30 04:33N 45°41' W 124°45'4 4.3
2016-Jul-30 03:33N 45°36' W 124°45'4 4.3
2016-Jul-30 02:33N 45°32' W 124°44'5 4.2
2016-Jul-30 01:29N 45°28' W 124°44'4 4.2
2016-Jul-30 00:28N 45°23' W 124°44'4 4.1
2016-Jul-29 23:32N 45°19' W 124°44'4 4.2
2016-Jul-29 22:32N 45°15' W 124°45'4 4.3
2016-Jul-29 21:33N 45°11' W 124°44'5 4.4
2016-Jul-29 20:32N 45°07' W 124°44'4 4.5
2016-Jul-29 19:33N 45°02' W 124°44'5 4.5
2016-Jul-29 18:32N 44°58' W 124°43'4 4.4
2016-Jul-29 17:33N 44°53' W 124°43'5 4.6
2016-Jul-29 16:33N 44°49' W 124°43'5 4.6
2016-Jul-29 15:33N 44°44' W 124°43'4 4.4
2016-Jul-29 14:33N 44°40' W 124°43'5 4.5
2016-Jul-29 13:30N 44°35' W 124°43'4 4.6
2016-Jul-29 12:32N 44°31' W 124°43'4 4.6
2016-Jul-29 11:33N 44°26' W 124°43'4 4.4
2016-Jul-29 10:33N 44°22' W 124°43'4 4.3
2016-Jul-29 09:33N 44°17' W 124°43'4 4.4
2016-Jul-29 08:33N 44°13' W 124°43'4 4.0
2016-Jul-29 07:32N 44°09' W 124°43'4 4.0
2016-Jul-29 06:33N 44°05' W 124°43'4 3.8
2016-Jul-29 05:33N 44°01' W 124°43'4 3.9
2016-Jul-29 04:33N 43°57' W 124°43'4 4.1
2016-Jul-29 03:33N 43°53' W 124°45'4 4.2
2016-Jul-29 02:33N 43°49' W 124°46'6 5.8
2016-Jul-29 01:33N 43°44' W 124°49'6 5.7
2016-Jul-29 00:33N 43°38' W 124°51'6 5.5
2016-Jul-28 23:33N 43°33' W 124°53'6 5.6
2016-Jul-28 22:33N 43°28' W 124°55'6 6.0
2016-Jul-28 21:32N 43°22' W 124°57'6 5.9
2016-Jul-28 20:33N 43°16' W 124°60'6 5.7
2016-Jul-28 19:32N 43°11' W 125°02'7 5.5
2016-Jul-28 18:12N 43°03' W 125°05'4 5.1
2016-Jul-28 17:25N 42°60' W 125°06'5 4.9
2016-Jul-28 16:22N 42°55' W 125°08'37 4.5
2016-Jul-28 08:04N 42°18' W 125°02'12 3.6
2016-Jul-28 04:33N 42°05' W 124°59'3 3.4
2016-Jul-28 03:33N 42°02' W 124°58'  

Dump ship's entire track history